Skip Navigation LinksHome page > Weather > Current weather Skip Navigation Links

Current Weather

Alert, Nunavut

For information only: do not use for flight planning or navigation.
Latest weather
Observation time Monday, May 22, 2017 11:00 AM EDT
Local time Monday, May 22, 2017 11:40 AM EDT
Flight conditions Visual Meteorological Conditions
Winds
Wind speed calm
Visibility 15 mi.
Sky condition
Ceiling unlimited
Cloud layer few clouds 4,000 ft.
Temperature 19°F
Dewpoint 14°F
Altimeter 30.15 in.Hg
Derived measurements
Relative humidity 79%
Wind chill 19°F
Density altitude -2949 ft.
Sea-level pressure 30.16 in.Hg
METAR CYLT 221500Z 00000KT 15SM FEW040 M07/M10 A3015 RMK SC2 SLP213

Settings

Location code

InnerDrive.Weather 4.0.6144.1 Release CLR 4.0.30319.36366
Copyright ©2015 Inner Drive Technology. All rights reserved. Portions Copyright ©1986-2015 David Braverman.

Find weather

Site navigation


Skip Navigation Links

Place info

Page info

PayPal - The safer, easier way to pay online!

Return home.

Copyright ©2017 Inner Drive Technology. Purveyors of fine, hand-crafted computer software. Page printed 2017-05-22T15:40:33 UTC.